Terminal Aerodrome Forecast
Issued by NWS Spokane, WA

Home | Current Version | Previous Version | Text Only | Print | Product List | Glossary On
Versions: 1 2 3 4 5 6 7 8 9 10 11 12 13 14 15 16
000
FTUS46 KOTX 081130
TAFGEG
TAF
KGEG 081130Z 0812/0912 05007KT P6SM SCT250
     FM082100 05010KT P6SM BKN200
     FM090000 04008KT P6SM SCT060 OVC100
     FM090700 06007KT P6SM -SN SCT025 OVC060=

USA.gov is the U.S. government's official web portal to all federal, state and local government web resources and services.